sensor_id;sensor_type;location;lat;lon;timestamp;pressure;altitude;pressure_sealevel;temperature;humidity
46718;BME280;32448;44.960;-0.698;2022-12-18T00:01:58;101837.38;;;-1.76;100.00
46718;BME280;32448;44.960;-0.698;2022-12-18T00:04:28;101870.31;;;-1.60;100.00
46718;BME280;32448;44.960;-0.698;2022-12-18T00:06:56;101860.81;;;-1.61;100.00
46718;BME280;32448;44.960;-0.698;2022-12-18T00:09:26;101869.41;;;-1.61;100.00
46718;BME280;32448;44.960;-0.698;2022-12-18T00:12:05;101842.41;;;-1.77;100.00
46718;BME280;32448;44.960;-0.698;2022-12-18T00:14:44;101865.34;;;-1.69;100.00
46718;BME280;32448;44.960;-0.698;2022-12-18T00:17:12;101872.47;;;-1.65;100.00
46718;BME280;32448;44.960;-0.698;2022-12-18T00:19:40;101879.28;;;-1.65;100.00
46718;BME280;32448;44.960;-0.698;2022-12-18T00:22:07;101875.31;;;-1.62;100.00
46718;BME280;32448;44.960;-0.698;2022-12-18T00:24:35;101871.50;;;-1.67;100.00
46718;BME280;32448;44.960;-0.698;2022-12-18T00:27:03;101874.81;;;-1.68;100.00
46718;BME280;32448;44.960;-0.698;2022-12-18T00:29:30;101875.94;;;-1.64;100.00
46718;BME280;32448;44.960;-0.698;2022-12-18T00:31:58;101873.03;;;-1.69;100.00
46718;BME280;32448;44.960;-0.698;2022-12-18T00:34:26;101873.78;;;-1.70;100.00
46718;BME280;32448;44.960;-0.698;2022-12-18T00:36:57;101874.91;;;-1.76;100.00
46718;BME280;32448;44.960;-0.698;2022-12-18T00:39:24;101873.25;;;-1.76;100.00
46718;BME280;32448;44.960;-0.698;2022-12-18T00:41:51;101870.97;;;-1.73;100.00
46718;BME280;32448;44.960;-0.698;2022-12-18T00:44:37;101869.28;;;-1.72;100.00
46718;BME280;32448;44.960;-0.698;2022-12-18T00:47:07;101873.16;;;-1.67;100.00
46718;BME280;32448;44.960;-0.698;2022-12-18T00:49:35;101874.06;;;-1.67;100.00
46718;BME280;32448;44.960;-0.698;2022-12-18T00:52:02;101871.22;;;-1.70;100.00
46718;BME280;32448;44.960;-0.698;2022-12-18T00:54:29;101873.16;;;-1.67;100.00
46718;BME280;32448;44.960;-0.698;2022-12-18T00:56:56;101880.72;;;-1.69;100.00
46718;BME280;32448;44.960;-0.698;2022-12-18T00:59:24;101878.00;;;-1.70;100.00
46718;BME280;32448;44.960;-0.698;2022-12-18T01:01:52;101882.38;;;-1.69;100.00
46718;BME280;32448;44.960;-0.698;2022-12-18T01:04:19;101885.97;;;-1.67;100.00
46718;BME280;32448;44.960;-0.698;2022-12-18T01:06:47;101875.59;;;-1.69;100.00
46718;BME280;32448;44.960;-0.698;2022-12-18T01:09:15;101881.47;;;-1.70;100.00
46718;BME280;32448;44.960;-0.698;2022-12-18T01:11:42;101896.72;;;-1.61;100.00
46718;BME280;32448;44.960;-0.698;2022-12-18T01:14:10;101886.59;;;-1.70;100.00
46718;BME280;32448;44.960;-0.698;2022-12-18T01:16:38;101890.44;;;-1.65;100.00
46718;BME280;32448;44.960;-0.698;2022-12-18T01:19:05;101864.56;;;-1.78;100.00
46718;BME280;32448;44.960;-0.698;2022-12-18T01:21:33;101877.59;;;-1.65;100.00
46718;BME280;32448;44.960;-0.698;2022-12-18T01:24:03;101885.06;;;-1.68;100.00
46718;BME280;32448;44.960;-0.698;2022-12-18T01:26:31;101892.22;;;-1.64;100.00
46718;BME280;32448;44.960;-0.698;2022-12-18T01:28:58;101892.09;;;-1.65;100.00
46718;BME280;32448;44.960;-0.698;2022-12-18T01:31:29;101880.16;;;-1.65;100.00
46718;BME280;32448;44.960;-0.698;2022-12-18T01:33:59;101891.44;;;-1.63;100.00
46718;BME280;32448;44.960;-0.698;2022-12-18T01:36:30;101887.22;;;-1.62;100.00
46718;BME280;32448;44.960;-0.698;2022-12-18T01:39:04;101865.47;;;-1.77;100.00
46718;BME280;32448;44.960;-0.698;2022-12-18T01:41:34;101883.63;;;-1.64;100.00
46718;BME280;32448;44.960;-0.698;2022-12-18T01:50:10;101884.31;;;-1.67;100.00
46718;BME280;32448;44.960;-0.698;2022-12-18T01:52:41;101885.69;;;-1.70;100.00
46718;BME280;32448;44.960;-0.698;2022-12-18T01:55:11;101887.63;;;-1.68;100.00
46718;BME280;32448;44.960;-0.698;2022-12-18T01:57:40;101885.19;;;-1.66;100.00
46718;BME280;32448;44.960;-0.698;2022-12-18T02:00:13;101892.09;;;-1.65;100.00
46718;BME280;32448;44.960;-0.698;2022-12-18T02:02:43;101866.88;;;-1.81;100.00
46718;BME280;32448;44.960;-0.698;2022-12-18T02:05:16;101893.13;;;-1.63;100.00
46718;BME280;32448;44.960;-0.698;2022-12-18T02:14:03;101877.13;;;-1.71;100.00
46718;BME280;32448;44.960;-0.698;2022-12-18T02:28:00;101867.34;;;-1.65;100.00
46718;BME280;32448;44.960;-0.698;2022-12-18T02:30:31;101878.63;;;-1.63;100.00
46718;BME280;32448;44.960;-0.698;2022-12-18T02:33:04;101875.31;;;-1.62;100.00
46718;BME280;32448;44.960;-0.698;2022-12-18T02:35:34;101876.84;;;-1.64;100.00
46718;BME280;32448;44.960;-0.698;2022-12-18T02:38:04;101869.16;;;-1.64;100.00
46718;BME280;32448;44.960;-0.698;2022-12-18T02:40:35;101879.66;;;-1.61;100.00
46718;BME280;32448;44.960;-0.698;2022-12-18T02:43:13;101871.72;;;-1.64;100.00
46718;BME280;32448;44.960;-0.698;2022-12-18T02:45:50;101869.03;;;-1.65;100.00
46718;BME280;32448;44.960;-0.698;2022-12-18T02:48:23;101848.94;;;-1.71;100.00
46718;BME280;32448;44.960;-0.698;2022-12-18T02:51:08;101864.03;;;-1.64;100.00
46718;BME280;32448;44.960;-0.698;2022-12-18T02:53:45;101864.56;;;-1.68;100.00
46718;BME280;32448;44.960;-0.698;2022-12-18T02:56:35;101866.47;;;-1.65;100.00
46718;BME280;32448;44.960;-0.698;2022-12-18T02:59:09;101866.59;;;-1.64;100.00
46718;BME280;32448;44.960;-0.698;2022-12-18T03:04:28;101858.41;;;-1.60;100.00
46718;BME280;32448;44.960;-0.698;2022-12-18T03:07:05;101853.28;;;-1.60;100.00
46718;BME280;32448;44.960;-0.698;2022-12-18T03:09:38;101855.06;;;-1.59;100.00
46718;BME280;32448;44.960;-0.698;2022-12-18T03:12:20;101862.13;;;-1.56;100.00
46718;BME280;32448;44.960;-0.698;2022-12-18T03:15:09;101855.44;;;-1.54;100.00
46718;BME280;32448;44.960;-0.698;2022-12-18T03:17:52;101847.88;;;-1.53;100.00
46718;BME280;32448;44.960;-0.698;2022-12-18T03:20:26;101850.31;;;-1.54;100.00
46718;BME280;32448;44.960;-0.698;2022-12-18T03:23:01;101836.34;;;-1.58;100.00
46718;BME280;32448;44.960;-0.698;2022-12-18T03:25:31;101859.03;;;-1.52;100.00
46718;BME280;32448;44.960;-0.698;2022-12-18T03:28:02;101857.75;;;-1.57;100.00
46718;BME280;32448;44.960;-0.698;2022-12-18T03:30:34;101881.44;;;-1.50;100.00
46718;BME280;32448;44.960;-0.698;2022-12-18T03:33:13;101878.88;;;-1.50;100.00
46718;BME280;32448;44.960;-0.698;2022-12-18T03:35:46;101876.97;;;-1.52;100.00
46718;BME280;32448;44.960;-0.698;2022-12-18T03:38:17;101882.34;;;-1.49;100.00
46718;BME280;32448;44.960;-0.698;2022-12-18T03:46:05;101881.19;;;-1.53;100.00
46718;BME280;32448;44.960;-0.698;2022-12-18T03:48:42;101879.78;;;-1.49;100.00
46718;BME280;32448;44.960;-0.698;2022-12-18T03:51:30;101884.00;;;-1.39;100.00
46718;BME280;32448;44.960;-0.698;2022-12-18T03:54:04;101869.03;;;-1.45;100.00
46718;BME280;32448;44.960;-0.698;2022-12-18T03:56:45;101862.88;;;-1.47;100.00
46718;BME280;32448;44.960;-0.698;2022-12-18T03:59:16;101871.31;;;-1.48;100.00
46718;BME280;32448;44.960;-0.698;2022-12-18T04:01:49;101844.56;;;-1.62;100.00
46718;BME280;32448;44.960;-0.698;2022-12-18T04:04:21;101875.16;;;-1.43;100.00
46718;BME280;32448;44.960;-0.698;2022-12-18T04:06:49;101872.09;;;-1.49;100.00
46718;BME280;32448;44.960;-0.698;2022-12-18T04:09:19;101892.59;;;-1.39;100.00
46718;BME280;32448;44.960;-0.698;2022-12-18T04:11:48;101884.13;;;-1.38;100.00
46718;BME280;32448;44.960;-0.698;2022-12-18T04:14:16;101884.25;;;-1.36;100.00
46718;BME280;32448;44.960;-0.698;2022-12-18T04:16:48;101900.91;;;-1.31;100.00
46718;BME280;32448;44.960;-0.698;2022-12-18T04:19:18;101901.56;;;-1.34;100.00
46718;BME280;32448;44.960;-0.698;2022-12-18T04:21:49;101907.81;;;-1.30;100.00
46718;BME280;32448;44.960;-0.698;2022-12-18T04:24:16;101919.13;;;-1.28;100.00
46718;BME280;32448;44.960;-0.698;2022-12-18T04:26:53;101911.94;;;-1.32;100.00
46718;BME280;32448;44.960;-0.698;2022-12-18T04:29:24;101928.72;;;-1.26;100.00
46718;BME280;32448;44.960;-0.698;2022-12-18T04:31:52;101922.84;;;-1.25;100.00
46718;BME280;32448;44.960;-0.698;2022-12-18T04:34:20;101922.06;;;-1.24;100.00
46718;BME280;32448;44.960;-0.698;2022-12-18T04:36:51;101922.44;;;-1.19;100.00
46718;BME280;32448;44.960;-0.698;2022-12-18T04:39:19;101925.41;;;-1.25;100.00
46718;BME280;32448;44.960;-0.698;2022-12-18T04:41:49;101926.16;;;-1.26;100.00
46718;BME280;32448;44.960;-0.698;2022-12-18T04:44:17;101922.44;;;-1.19;100.00
46718;BME280;32448;44.960;-0.698;2022-12-18T04:46:44;101923.84;;;-1.13;100.00
46718;BME280;32448;44.960;-0.698;2022-12-18T04:49:12;101926.63;;;-1.10;100.00
46718;BME280;32448;44.960;-0.698;2022-12-18T04:51:39;101925.88;;;-1.08;100.00
46718;BME280;32448;44.960;-0.698;2022-12-18T04:54:07;101928.44;;;-1.08;100.00
46718;BME280;32448;44.960;-0.698;2022-12-18T04:56:34;101917.81;;;-1.13;100.00
46718;BME280;32448;44.960;-0.698;2022-12-18T04:59:02;101925.09;;;-1.07;100.00
46718;BME280;32448;44.960;-0.698;2022-12-18T05:01:29;101937.41;;;-1.03;100.00
46718;BME280;32448;44.960;-0.698;2022-12-18T05:04:01;101922.78;;;-1.04;100.00
46718;BME280;32448;44.960;-0.698;2022-12-18T05:06:29;101921.91;;;-1.05;100.00
46718;BME280;32448;44.960;-0.698;2022-12-18T05:08:57;101921.00;;;-1.05;100.00
46718;BME280;32448;44.960;-0.698;2022-12-18T05:11:25;101924.94;;;-0.99;100.00
46718;BME280;32448;44.960;-0.698;2022-12-18T05:13:54;101918.13;;;-0.98;100.00
46718;BME280;32448;44.960;-0.698;2022-12-18T05:16:24;101916.00;;;-1.04;100.00
46718;BME280;32448;44.960;-0.698;2022-12-18T05:18:53;101925.59;;;-0.91;100.00
46718;BME280;32448;44.960;-0.698;2022-12-18T05:21:21;101922.25;;;-0.90;100.00
46718;BME280;32448;44.960;-0.698;2022-12-18T05:23:49;101914.78;;;-0.87;100.00
46718;BME280;32448;44.960;-0.698;2022-12-18T05:26:18;101927.09;;;-0.83;100.00
46718;BME280;32448;44.960;-0.698;2022-12-18T05:28:45;101924.34;;;-0.75;100.00
46718;BME280;32448;44.960;-0.698;2022-12-18T05:31:13;101926.28;;;-0.72;100.00
46718;BME280;32448;44.960;-0.698;2022-12-18T05:33:41;101916.00;;;-0.72;100.00
46718;BME280;32448;44.960;-0.698;2022-12-18T05:36:10;101925.47;;;-0.61;100.00
46718;BME280;32448;44.960;-0.698;2022-12-18T05:38:38;101936.00;;;-0.58;100.00
46718;BME280;32448;44.960;-0.698;2022-12-18T05:41:07;101925.59;;;-0.59;100.00
46718;BME280;32448;44.960;-0.698;2022-12-18T05:43:36;101928.50;;;-0.55;100.00
46718;BME280;32448;44.960;-0.698;2022-12-18T05:46:08;101912.88;;;-0.58;100.00
46718;BME280;32448;44.960;-0.698;2022-12-18T05:48:38;101921.44;;;-0.47;100.00
46718;BME280;32448;44.960;-0.698;2022-12-18T05:51:09;101888.31;;;-0.54;100.00
46718;BME280;32448;44.960;-0.698;2022-12-18T05:53:38;101923.53;;;-0.31;100.00
46718;BME280;32448;44.960;-0.698;2022-12-18T05:56:08;101922.28;;;-0.37;100.00
46718;BME280;32448;44.960;-0.698;2022-12-18T05:58:36;101927.66;;;-0.33;100.00
46718;BME280;32448;44.960;-0.698;2022-12-18T06:01:22;101927.75;;;-0.32;100.00
46718;BME280;32448;44.960;-0.698;2022-12-18T06:03:55;101924.91;;;-0.25;100.00
46718;BME280;32448;44.960;-0.698;2022-12-18T06:06:27;101915.09;;;-0.19;100.00
46718;BME280;32448;44.960;-0.698;2022-12-18T06:08:55;101919.06;;;-0.12;100.00
46718;BME280;32448;44.960;-0.698;2022-12-18T06:11:25;101909.31;;;-0.16;100.00
46718;BME280;32448;44.960;-0.698;2022-12-18T06:13:55;101922.09;;;-0.06;100.00
46718;BME280;32448;44.960;-0.698;2022-12-18T06:16:26;101930.38;;;0.02;100.00
46718;BME280;32448;44.960;-0.698;2022-12-18T06:18:58;101929.34;;;0.10;100.00
46718;BME280;32448;44.960;-0.698;2022-12-18T06:21:27;101927.16;;;0.04;100.00
46718;BME280;32448;44.960;-0.698;2022-12-18T06:23:55;101922.72;;;0.13;100.00
46718;BME280;32448;44.960;-0.698;2022-12-18T06:26:23;101928.00;;;0.15;100.00
46718;BME280;32448;44.960;-0.698;2022-12-18T06:28:54;101902.25;;;0.03;100.00
46718;BME280;32448;44.960;-0.698;2022-12-18T06:31:22;101916.16;;;0.17;100.00
46718;BME280;32448;44.960;-0.698;2022-12-18T06:33:49;101908.44;;;0.17;100.00
46718;BME280;32448;44.960;-0.698;2022-12-18T06:36:17;101906.00;;;0.18;100.00
46718;BME280;32448;44.960;-0.698;2022-12-18T06:38:45;101916.63;;;0.23;100.00
46718;BME280;32448;44.960;-0.698;2022-12-18T06:41:19;101910.78;;;0.14;100.00
46718;BME280;32448;44.960;-0.698;2022-12-18T06:43:47;101921.66;;;0.21;100.00
46718;BME280;32448;44.960;-0.698;2022-12-18T06:46:14;101912.25;;;0.10;100.00
46718;BME280;32448;44.960;-0.698;2022-12-18T06:48:42;101918.38;;;0.12;100.00
46718;BME280;32448;44.960;-0.698;2022-12-18T06:51:09;101934.84;;;0.26;100.00
46718;BME280;32448;44.960;-0.698;2022-12-18T06:53:39;101940.38;;;0.30;100.00
46718;BME280;32448;44.960;-0.698;2022-12-18T06:56:07;101924.69;;;0.27;100.00
46718;BME280;32448;44.960;-0.698;2022-12-18T06:58:38;101937.00;;;0.31;100.00
46718;BME280;32448;44.960;-0.698;2022-12-18T07:01:08;101911.59;;;0.24;100.00
46718;BME280;32448;44.960;-0.698;2022-12-18T07:03:37;101928.41;;;0.31;100.00
46718;BME280;32448;44.960;-0.698;2022-12-18T07:06:05;101936.56;;;0.37;100.00
46718;BME280;32448;44.960;-0.698;2022-12-18T07:08:33;101926.00;;;0.44;100.00
46718;BME280;32448;44.960;-0.698;2022-12-18T07:11:03;101921.63;;;0.43;100.00
46718;BME280;32448;44.960;-0.698;2022-12-18T07:13:31;101932.34;;;0.49;100.00
46718;BME280;32448;44.960;-0.698;2022-12-18T07:16:10;101924.31;;;0.56;100.00
46718;BME280;32448;44.960;-0.698;2022-12-18T07:18:48;101917.59;;;0.58;100.00
46718;BME280;32448;44.960;-0.698;2022-12-18T07:21:18;101920.97;;;0.57;100.00
46718;BME280;32448;44.960;-0.698;2022-12-18T07:23:45;101923.00;;;0.61;100.00
46718;BME280;32448;44.960;-0.698;2022-12-18T07:26:16;101923.88;;;0.62;100.00
46718;BME280;32448;44.960;-0.698;2022-12-18T07:28:45;101926.47;;;0.62;100.00
46718;BME280;32448;44.960;-0.698;2022-12-18T07:31:15;101935.72;;;0.60;100.00
46718;BME280;32448;44.960;-0.698;2022-12-18T07:33:45;101935.72;;;0.60;100.00
46718;BME280;32448;44.960;-0.698;2022-12-18T07:36:13;101947.28;;;0.65;100.00
46718;BME280;32448;44.960;-0.698;2022-12-18T07:38:40;101945.94;;;0.70;100.00
46718;BME280;32448;44.960;-0.698;2022-12-18T07:41:10;101952.31;;;0.63;100.00
46718;BME280;32448;44.960;-0.698;2022-12-18T07:43:39;101955.22;;;0.68;100.00
46718;BME280;32448;44.960;-0.698;2022-12-18T07:46:11;101962.38;;;0.72;100.00
46718;BME280;32448;44.960;-0.698;2022-12-18T07:48:41;101964.50;;;0.78;100.00
46718;BME280;32448;44.960;-0.698;2022-12-18T07:51:11;101964.50;;;0.78;100.00
46718;BME280;32448;44.960;-0.698;2022-12-18T07:53:39;101968.34;;;0.83;100.00
46718;BME280;32448;44.960;-0.698;2022-12-18T07:56:11;101963.19;;;0.83;100.00
46718;BME280;32448;44.960;-0.698;2022-12-18T07:58:57;101968.22;;;0.81;100.00
46718;BME280;32448;44.960;-0.698;2022-12-18T08:01:25;101970.38;;;0.87;100.00
46718;BME280;32448;44.960;-0.698;2022-12-18T08:03:52;101964.97;;;0.84;100.00
46718;BME280;32448;44.960;-0.698;2022-12-18T08:06:20;101977.31;;;0.88;100.00
46718;BME280;32448;44.960;-0.698;2022-12-18T08:08:54;101974.03;;;0.90;100.00
46718;BME280;32448;44.960;-0.698;2022-12-18T08:11:24;101975.06;;;0.92;100.00
46718;BME280;32448;44.960;-0.698;2022-12-18T08:13:52;101978.66;;;0.94;100.00
46718;BME280;32448;44.960;-0.698;2022-12-18T08:16:21;101987.41;;;1.08;100.00
46718;BME280;32448;44.960;-0.698;2022-12-18T08:18:51;101974.41;;;1.06;100.00
46718;BME280;32448;44.960;-0.698;2022-12-18T08:21:21;101959.63;;;1.04;100.00
46718;BME280;32448;44.960;-0.698;2022-12-18T08:23:51;101956.50;;;1.08;100.00
46718;BME280;32448;44.960;-0.698;2022-12-18T08:26:19;101985.94;;;1.23;100.00
46718;BME280;32448;44.960;-0.698;2022-12-18T08:28:50;101965.03;;;1.19;100.00
46718;BME280;32448;44.960;-0.698;2022-12-18T08:31:19;101962.44;;;1.19;100.00
46718;BME280;32448;44.960;-0.698;2022-12-18T08:33:50;101956.06;;;1.25;100.00
46718;BME280;32448;44.960;-0.698;2022-12-18T08:36:21;101952.94;;;1.29;100.00
46718;BME280;32448;44.960;-0.698;2022-12-18T08:38:50;101925.50;;;1.30;100.00
46718;BME280;32448;44.960;-0.698;2022-12-18T08:41:20;101935.91;;;1.43;100.00
46718;BME280;32448;44.960;-0.698;2022-12-18T08:43:48;101927.94;;;1.40;100.00
46718;BME280;32448;44.960;-0.698;2022-12-18T08:46:37;101929.59;;;1.51;100.00
46718;BME280;32448;44.960;-0.698;2022-12-18T08:49:06;101944.28;;;1.64;100.00
46718;BME280;32448;44.960;-0.698;2022-12-18T08:51:34;101953.56;;;1.62;100.00
46718;BME280;32448;44.960;-0.698;2022-12-18T08:54:03;101927.03;;;1.51;100.00
46718;BME280;32448;44.960;-0.698;2022-12-18T08:56:32;101960.16;;;1.70;100.00
46718;BME280;32448;44.960;-0.698;2022-12-18T08:59:01;101968.13;;;1.73;100.00
46718;BME280;32448;44.960;-0.698;2022-12-18T09:01:28;101974.59;;;1.79;100.00
46718;BME280;32448;44.960;-0.698;2022-12-18T09:03:57;101983.69;;;1.74;100.00
46718;BME280;32448;44.960;-0.698;2022-12-18T09:06:24;101988.97;;;1.76;100.00
46718;BME280;32448;44.960;-0.698;2022-12-18T09:08:52;101991.72;;;1.79;100.00
46718;BME280;32448;44.960;-0.698;2022-12-18T09:11:26;101982.53;;;1.82;100.00
46718;BME280;32448;44.960;-0.698;2022-12-18T09:13:54;101970.91;;;1.88;100.00
46718;BME280;32448;44.960;-0.698;2022-12-18T09:16:24;101963.16;;;1.88;100.00
46718;BME280;32448;44.960;-0.698;2022-12-18T09:18:58;101958.97;;;1.90;100.00
46718;BME280;32448;44.960;-0.698;2022-12-18T09:21:31;101957.66;;;1.83;100.00
46718;BME280;32448;44.960;-0.698;2022-12-18T09:24:02;101974.13;;;1.97;100.00
46718;BME280;32448;44.960;-0.698;2022-12-18T09:26:33;101969.50;;;1.93;100.00
46718;BME280;32448;44.960;-0.698;2022-12-18T09:29:02;101966.16;;;1.94;100.00
46718;BME280;32448;44.960;-0.698;2022-12-18T09:31:29;101976.09;;;2.01;100.00
46718;BME280;32448;44.960;-0.698;2022-12-18T09:33:56;101972.81;;;2.15;100.00
46718;BME280;32448;44.960;-0.698;2022-12-18T09:36:24;101967.03;;;2.31;100.00
46718;BME280;32448;44.960;-0.698;2022-12-18T09:38:52;101966.78;;;2.39;100.00
46718;BME280;32448;44.960;-0.698;2022-12-18T09:41:55;101966.72;;;2.51;100.00
46718;BME280;32448;44.960;-0.698;2022-12-18T09:44:36;101948.47;;;2.61;100.00
46718;BME280;32448;44.960;-0.698;2022-12-18T09:49:46;101956.09;;;2.84;100.00
46718;BME280;32448;44.960;-0.698;2022-12-18T09:54:56;101966.34;;;3.09;100.00
46718;BME280;32448;44.960;-0.698;2022-12-18T09:57:26;101982.06;;;3.39;100.00
46718;BME280;32448;44.960;-0.698;2022-12-18T10:00:04;101983.66;;;3.50;100.00
46718;BME280;32448;44.960;-0.698;2022-12-18T10:02:37;101998.53;;;3.67;100.00
46718;BME280;32448;44.960;-0.698;2022-12-18T10:05:12;101993.56;;;3.83;100.00
46718;BME280;32448;44.960;-0.698;2022-12-18T10:07:43;101979.81;;;3.97;100.00
46718;BME280;32448;44.960;-0.698;2022-12-18T10:10:26;101963.88;;;4.05;100.00
46718;BME280;32448;44.960;-0.698;2022-12-18T10:16:00;101968.56;;;4.25;100.00
46718;BME280;32448;44.960;-0.698;2022-12-18T10:24:38;101975.31;;;4.36;100.00
46718;BME280;32448;44.960;-0.698;2022-12-18T10:27:17;101976.00;;;4.33;100.00
46718;BME280;32448;44.960;-0.698;2022-12-18T10:29:48;101963.66;;;4.01;100.00
46718;BME280;32448;44.960;-0.698;2022-12-18T10:32:22;101954.78;;;3.83;100.00
46718;BME280;32448;44.960;-0.698;2022-12-18T10:34:50;101970.41;;;4.13;100.00
46718;BME280;32448;44.960;-0.698;2022-12-18T10:37:28;101945.38;;;3.98;100.00
46718;BME280;32448;44.960;-0.698;2022-12-18T10:40:15;101966.31;;;4.16;100.00
46718;BME280;32448;44.960;-0.698;2022-12-18T10:43:15;101957.38;;;4.39;100.00
46718;BME280;32448;44.960;-0.698;2022-12-18T10:46:01;101942.69;;;4.25;100.00
46718;BME280;32448;44.960;-0.698;2022-12-18T10:48:30;101936.88;;;4.57;100.00
46718;BME280;32448;44.960;-0.698;2022-12-18T10:50:58;101941.25;;;4.87;100.00
46718;BME280;32448;44.960;-0.698;2022-12-18T10:53:40;101934.75;;;4.94;100.00
46718;BME280;32448;44.960;-0.698;2022-12-18T10:56:08;101912.47;;;4.97;100.00
46718;BME280;32448;44.960;-0.698;2022-12-18T10:58:39;101933.84;;;5.08;100.00
46718;BME280;32448;44.960;-0.698;2022-12-18T11:01:16;101922.84;;;5.12;100.00
46718;BME280;32448;44.960;-0.698;2022-12-18T11:06:28;101909.81;;;5.41;100.00
46718;BME280;32448;44.960;-0.698;2022-12-18T11:09:17;101909.22;;;5.31;100.00
46718;BME280;32448;44.960;-0.698;2022-12-18T11:11:55;101906.56;;;5.29;100.00
46718;BME280;32448;44.960;-0.698;2022-12-18T11:14:27;101913.97;;;5.38;100.00
46718;BME280;32448;44.960;-0.698;2022-12-18T11:16:56;101909.78;;;5.25;100.00
46718;BME280;32448;44.960;-0.698;2022-12-18T11:19:53;101883.28;;;5.00;100.00
46718;BME280;32448;44.960;-0.698;2022-12-18T11:22:29;101900.59;;;5.16;100.00
46718;BME280;32448;44.960;-0.698;2022-12-18T11:25:04;101907.97;;;5.39;100.00
46718;BME280;32448;44.960;-0.698;2022-12-18T11:28:00;101897.47;;;5.52;100.00
46718;BME280;32448;44.960;-0.698;2022-12-18T11:30:36;101885.72;;;5.75;100.00
46718;BME280;32448;44.960;-0.698;2022-12-18T11:33:14;101886.41;;;5.87;100.00
46718;BME280;32448;44.960;-0.698;2022-12-18T11:35:53;101877.94;;;6.06;100.00
46718;BME280;32448;44.960;-0.698;2022-12-18T11:38:27;101873.44;;;6.19;100.00
46718;BME280;32448;44.960;-0.698;2022-12-18T11:41:28;101869.59;;;6.45;100.00
46718;BME280;32448;44.960;-0.698;2022-12-18T11:44:34;101877.50;;;6.65;100.00
46718;BME280;32448;44.960;-0.698;2022-12-18T11:49:49;101825.84;;;6.53;100.00
46718;BME280;32448;44.960;-0.698;2022-12-18T11:52:27;101873.03;;;7.14;100.00
46718;BME280;32448;44.960;-0.698;2022-12-18T11:55:09;101863.06;;;7.23;100.00
46718;BME280;32448;44.960;-0.698;2022-12-18T12:00:39;101865.63;;;7.41;100.00
46718;BME280;32448;44.960;-0.698;2022-12-18T12:03:22;101869.44;;;7.47;100.00
46718;BME280;32448;44.960;-0.698;2022-12-18T12:06:10;101874.47;;;7.62;100.00
46718;BME280;32448;44.960;-0.698;2022-12-18T12:08:56;101870.59;;;7.91;100.00
46718;BME280;32448;44.960;-0.698;2022-12-18T12:18:08;101860.91;;;8.08;100.00
46718;BME280;32448;44.960;-0.698;2022-12-18T12:21:05;101868.94;;;8.12;100.00
46718;BME280;32448;44.960;-0.698;2022-12-18T12:24:47;101887.25;;;8.33;100.00
46718;BME280;32448;44.960;-0.698;2022-12-18T12:26:49;101841.44;;;8.19;100.00
46718;BME280;32448;44.960;-0.698;2022-12-18T12:29:33;101876.78;;;8.52;100.00
46718;BME280;32448;44.960;-0.698;2022-12-18T12:40:26;101858.16;;;8.83;100.00
46718;BME280;32448;44.960;-0.698;2022-12-18T12:43:27;101858.16;;;8.83;100.00
46718;BME280;32448;44.960;-0.698;2022-12-18T12:48:36;101854.59;;;8.81;100.00
46718;BME280;32448;44.960;-0.698;2022-12-18T12:54:00;101845.28;;;8.88;100.00
46718;BME280;32448;44.960;-0.698;2022-12-18T12:56:52;101859.31;;;9.12;100.00
46718;BME280;32448;44.960;-0.698;2022-12-18T13:05:02;101866.63;;;9.43;100.00
46718;BME280;32448;44.960;-0.698;2022-12-18T13:10:50;101846.72;;;9.45;100.00
46718;BME280;32448;44.960;-0.698;2022-12-18T13:13:54;101843.56;;;9.54;100.00
46718;BME280;32448;44.960;-0.698;2022-12-18T13:16:26;101838.22;;;9.50;100.00
46718;BME280;32448;44.960;-0.698;2022-12-18T13:18:59;101830.22;;;9.46;100.00
46718;BME280;32448;44.960;-0.698;2022-12-18T13:21:33;101824.41;;;9.53;100.00
46718;BME280;32448;44.960;-0.698;2022-12-18T13:24:25;101840.94;;;9.54;100.00
46718;BME280;32448;44.960;-0.698;2022-12-18T13:26:53;101833.84;;;9.49;100.00
46718;BME280;32448;44.960;-0.698;2022-12-18T13:29:42;101834.00;;;9.54;100.00
46718;BME280;32448;44.960;-0.698;2022-12-18T13:32:24;101802.22;;;9.20;100.00
46718;BME280;32448;44.960;-0.698;2022-12-18T13:37:52;101802.56;;;9.27;100.00
46718;BME280;32448;44.960;-0.698;2022-12-18T13:46:21;101797.31;;;9.49;100.00
46718;BME280;32448;44.960;-0.698;2022-12-18T13:48:57;101782.09;;;9.38;100.00
46718;BME280;32448;44.960;-0.698;2022-12-18T13:51:29;101761.31;;;9.19;100.00
46718;BME280;32448;44.960;-0.698;2022-12-18T13:57:12;101769.94;;;9.38;100.00
46718;BME280;32448;44.960;-0.698;2022-12-18T13:59:52;101787.34;;;9.39;100.00
46718;BME280;32448;44.960;-0.698;2022-12-18T14:02:26;101793.78;;;9.25;100.00
46718;BME280;32448;44.960;-0.698;2022-12-18T14:04:55;101794.94;;;9.33;100.00
46718;BME280;32448;44.960;-0.698;2022-12-18T14:07:24;101779.47;;;9.38;100.00
46718;BME280;32448;44.960;-0.698;2022-12-18T14:10:01;101779.06;;;9.49;100.00
46718;BME280;32448;44.960;-0.698;2022-12-18T14:12:54;101787.97;;;9.56;100.00
46718;BME280;32448;44.960;-0.698;2022-12-18T14:15:39;101780.34;;;9.61;100.00
46718;BME280;32448;44.960;-0.698;2022-12-18T14:18:20;101786.31;;;9.58;100.00
46718;BME280;32448;44.960;-0.698;2022-12-18T14:20:57;101777.38;;;9.52;100.00
46718;BME280;32448;44.960;-0.698;2022-12-18T14:23:31;101779.66;;;9.66;100.00
46718;BME280;32448;44.960;-0.698;2022-12-18T14:26:01;101783.94;;;9.64;100.00
46718;BME280;32448;44.960;-0.698;2022-12-18T14:28:32;101786.41;;;9.61;100.00
46718;BME280;32448;44.960;-0.698;2022-12-18T14:30:59;101785.25;;;9.53;100.00
46718;BME280;32448;44.960;-0.698;2022-12-18T14:33:27;101792.50;;;9.60;100.00
46718;BME280;32448;44.960;-0.698;2022-12-18T14:35:57;101797.53;;;9.56;100.00
46718;BME280;32448;44.960;-0.698;2022-12-18T14:38:37;101803.41;;;9.50;100.00
46718;BME280;32448;44.960;-0.698;2022-12-18T14:41:13;101791.50;;;9.34;100.00